createdAt,value
2023-02-18T00:01:41.996Z,99611.59
2023-02-18T00:04:13.897Z,99606.16
2023-02-18T00:06:47.135Z,99613.63
2023-02-18T00:09:19.036Z,99612.19
2023-02-18T00:11:52.366Z,99610.94
2023-02-18T00:14:24.689Z,99586.31
2023-02-18T00:16:57.357Z,99599.09
2023-02-18T00:19:29.713Z,99611.66
2023-02-18T00:22:04.944Z,99608.97
2023-02-18T00:24:37.239Z,99601.66
2023-02-18T00:27:09.671Z,99606.72
2023-02-18T00:29:42.073Z,99599.66
2023-02-18T00:32:14.888Z,99604.25
2023-02-18T00:34:47.292Z,99603.63
2023-02-18T00:37:20.418Z,99603.63
2023-02-18T00:39:52.887Z,99600.19
2023-02-18T00:42:24.901Z,99580.97
2023-02-18T00:44:58.650Z,99579.69
2023-02-18T00:47:31.778Z,99587.06
2023-02-18T00:50:06.702Z,99585.66
2023-02-18T00:52:38.601Z,99577.09
2023-02-18T00:55:12.989Z,99567.13
2023-02-18T00:57:44.901Z,99561.13
2023-02-18T01:00:17.935Z,99553.16
2023-02-18T01:02:53.912Z,99557.28
2023-02-18T01:05:28.143Z,99546.59
2023-02-18T01:08:00.897Z,99559.78
2023-02-18T01:10:36.460Z,99547.84
2023-02-18T01:13:10.616Z,99545.03
2023-02-18T01:15:43.845Z,99556.44
2023-02-18T01:18:39.505Z,99563.59
2023-02-18T01:21:11.981Z,99558.81
2023-02-18T01:23:44.814Z,99552.25
2023-02-18T01:26:20.805Z,99553.00
2023-02-18T01:28:53.561Z,99536.81
2023-02-18T01:31:26.785Z,99542.75
2023-02-18T01:33:59.090Z,99544.97
2023-02-18T01:36:34.702Z,99548.13
2023-02-18T01:39:07.087Z,99552.91
2023-02-18T01:41:39.450Z,99541.13
2023-02-18T01:44:14.510Z,99553.09
2023-02-18T01:46:48.072Z,99545.88
2023-02-18T01:49:35.054Z,99537.78
2023-02-18T01:52:16.489Z,99534.00
2023-02-18T01:54:54.766Z,99529.25
2023-02-18T01:57:34.182Z,99541.91
2023-02-18T02:00:13.898Z,99522.09
2023-02-18T02:02:53.824Z,99541.28
2023-02-18T02:05:32.572Z,99522.81
2023-02-18T02:08:06.548Z,99526.16
2023-02-18T02:11:01.848Z,99526.28
2023-02-18T02:14:07.211Z,99521.00
2023-02-18T02:17:24.337Z,99518.34
2023-02-18T02:20:34.456Z,99526.97
2023-02-18T02:23:33.506Z,99526.34
2023-02-18T02:26:53.893Z,99511.75
2023-02-18T02:30:07.756Z,99525.00
2023-02-18T02:33:03.272Z,99519.78
2023-02-18T02:36:08.739Z,99505.16
2023-02-18T02:39:08.749Z,99511.88
2023-02-18T02:42:24.991Z,99522.44
2023-02-18T02:45:12.007Z,99512.50
2023-02-18T02:48:01.565Z,99499.19
2023-02-18T02:51:07.653Z,99510.56
2023-02-18T02:53:42.759Z,99503.97
2023-02-18T02:56:25.382Z,99494.69
2023-02-18T02:59:05.324Z,99505.94
2023-02-18T03:02:24.052Z,99507.38
2023-02-18T03:05:09.352Z,99502.75
2023-02-18T03:08:32.073Z,99494.81
2023-02-18T03:11:16.401Z,99498.75
2023-02-18T03:14:09.700Z,99474.22
2023-02-18T03:16:51.901Z,99479.63
2023-02-18T03:19:43.590Z,99486.25
2023-02-18T03:22:47.366Z,99480.22
2023-02-18T03:25:19.778Z,99476.94
2023-02-18T03:28:21.122Z,99478.31
2023-02-18T03:31:04.378Z,99461.03
2023-02-18T03:33:48.566Z,99459.16
2023-02-18T03:36:21.895Z,99433.25
2023-02-18T03:39:08.548Z,99455.88
2023-02-18T03:41:42.210Z,99472.41
2023-02-18T03:44:14.692Z,99473.13
2023-02-18T03:46:47.567Z,99448.47
2023-02-18T03:49:20.424Z,99453.88
2023-02-18T03:52:11.428Z,99461.84
2023-02-18T03:54:44.589Z,99474.47
2023-02-18T03:57:16.539Z,99465.94
2023-02-18T03:59:49.295Z,99448.03
2023-02-18T04:02:21.144Z,99464.53
2023-02-18T04:04:54.127Z,99469.78
2023-02-18T04:07:27.730Z,99474.53
2023-02-18T04:10:00.002Z,99462.59
2023-02-18T04:12:32.009Z,99459.91
2023-02-18T04:15:05.150Z,99467.91
2023-02-18T04:17:37.845Z,99467.91
2023-02-18T04:20:11.164Z,99463.81
2023-02-18T04:22:43.808Z,99460.56
2023-02-18T04:25:16.333Z,99439.28
2023-02-18T04:27:49.062Z,99457.13
2023-02-18T04:30:23.290Z,99472.41
2023-02-18T04:32:55.254Z,99453.78
2023-02-18T04:35:28.379Z,99461.88
2023-02-18T04:38:00.747Z,99453.91
2023-02-18T04:40:33.219Z,99456.63
2023-02-18T04:43:05.131Z,99450.56
2023-02-18T04:45:37.808Z,99458.53
2023-02-18T04:48:09.703Z,99468.56
2023-02-18T04:50:42.600Z,99465.28
2023-02-18T04:53:15.229Z,99461.28
2023-02-18T04:56:10.114Z,99445.41
2023-02-18T04:58:42.539Z,99446.75
2023-02-18T05:01:15.378Z,99440.81
2023-02-18T05:03:47.765Z,99428.22
2023-02-18T05:06:20.205Z,99438.19
2023-02-18T05:08:52.472Z,99440.19
2023-02-18T05:11:25.183Z,99445.44
2023-02-18T05:13:57.041Z,99446.75
2023-02-18T05:16:29.726Z,99452.13
2023-02-18T05:19:01.989Z,99454.72
2023-02-18T05:21:34.210Z,99458.69
2023-02-18T05:24:09.016Z,99461.41
2023-02-18T05:26:41.058Z,99451.34
2023-02-18T05:29:13.765Z,99448.09
2023-02-18T05:31:46.141Z,99455.41
2023-02-18T05:34:19.112Z,99452.75
2023-02-18T05:36:51.002Z,99425.53
2023-02-18T05:39:23.302Z,99436.81
2023-02-18T05:41:55.596Z,99428.81
2023-02-18T05:44:30.788Z,99411.47
2023-02-18T05:47:11.770Z,99422.03
2023-02-18T05:49:44.633Z,99425.34
2023-02-18T05:52:17.293Z,99434.59
2023-02-18T05:54:49.970Z,99419.31
2023-02-18T05:57:24.966Z,99439.88
2023-02-18T05:59:59.285Z,99417.28
2023-02-18T06:02:53.447Z,99425.28
2023-02-18T06:05:26.386Z,99437.28
2023-02-18T06:07:58.325Z,99423.34
2023-02-18T06:10:31.050Z,99434.66
2023-02-18T06:13:04.124Z,99435.34
2023-02-18T06:15:36.823Z,99421.50
2023-02-18T06:18:09.681Z,99413.41
2023-02-18T06:20:41.577Z,99411.59
2023-02-18T06:23:14.924Z,99422.03
2023-02-18T06:25:50.240Z,99422.88
2023-02-18T06:28:23.428Z,99415.59
2023-02-18T06:30:56.703Z,99415.53
2023-02-18T06:33:29.168Z,99424.88
2023-02-18T06:36:09.318Z,99408.41
2023-02-18T06:38:45.299Z,99401.81
2023-02-18T06:41:18.043Z,99409.75
2023-02-18T06:46:44.940Z,99409.22
2023-02-18T06:49:18.062Z,99409.22
2023-02-18T06:51:50.742Z,99417.22
2023-02-18T06:54:22.636Z,99411.91
2023-02-18T06:56:55.740Z,99411.88
2023-02-18T06:59:27.785Z,99422.44
2023-02-18T07:02:00.730Z,99425.78
2023-02-18T07:04:33.046Z,99417.25
2023-02-18T07:07:07.937Z,99420.00
2023-02-18T07:10:01.987Z,99430.69
2023-02-18T07:12:34.797Z,99428.72
2023-02-18T07:15:07.350Z,99422.91
2023-02-18T07:17:40.560Z,99428.75
2023-02-18T07:23:05.737Z,99428.09
2023-02-18T07:25:38.460Z,99430.78
2023-02-18T07:28:11.805Z,99428.72
2023-02-18T07:30:44.069Z,99432.16
2023-02-18T07:33:16.790Z,99437.41
2023-02-18T07:35:57.418Z,99432.81
2023-02-18T07:41:23.967Z,99434.88
2023-02-18T07:43:56.295Z,99439.53
2023-02-18T07:46:28.760Z,99422.94
2023-02-18T07:49:03.778Z,99403.75
2023-02-18T07:51:37.696Z,99422.31
2023-02-18T07:54:10.392Z,99421.06
2023-02-18T07:56:43.165Z,99429.72
2023-02-18T07:59:16.312Z,99422.41
2023-02-18T08:01:48.264Z,99422.41
2023-02-18T08:04:21.011Z,99427.75
2023-02-18T08:06:53.375Z,99431.75
2023-02-18T08:09:26.064Z,99417.81
2023-02-18T08:11:58.907Z,99431.06
2023-02-18T08:14:31.184Z,99440.31
2023-02-18T08:17:03.901Z,99434.31
2023-02-18T08:19:36.606Z,99423.03
2023-02-18T08:22:10.788Z,99429.72
2023-02-18T08:24:45.509Z,99415.13
2023-02-18T08:27:18.179Z,99423.78
2023-02-18T08:29:50.142Z,99429.00
2023-02-18T08:32:23.101Z,99417.72
2023-02-18T08:34:55.276Z,99440.94
2023-02-18T08:37:28.957Z,99445.53
2023-02-18T08:40:21.900Z,99424.31
2023-02-18T08:42:54.268Z,99436.31
2023-02-18T08:45:26.714Z,99429.19
2023-02-18T08:48:20.549Z,99434.56
2023-02-18T08:50:53.719Z,99414.69
2023-02-18T08:53:25.934Z,99422.81
2023-02-18T08:55:59.031Z,99436.00
2023-02-18T08:58:31.263Z,99436.56
2023-02-18T09:01:10.306Z,99434.63
2023-02-18T09:03:43.024Z,99420.78
2023-02-18T09:09:10.236Z,99422.66
2023-02-18T09:11:43.070Z,99434.56
2023-02-18T09:14:16.356Z,99411.34
2023-02-18T09:16:48.766Z,99428.03
2023-02-18T09:19:21.694Z,99420.81
2023-02-18T09:21:53.959Z,99423.47
2023-02-18T09:24:27.082Z,99435.44
2023-02-18T09:26:59.343Z,99436.88
2023-02-18T09:29:33.346Z,99434.09
2023-02-18T09:32:08.040Z,99438.53
2023-02-18T09:34:40.349Z,99433.31
2023-02-18T09:37:13.787Z,99424.03
2023-02-18T09:39:45.767Z,99455.72
2023-02-18T09:42:21.608Z,99435.97
2023-02-18T09:44:59.427Z,99429.28
2023-02-18T09:47:42.661Z,99423.44
2023-02-18T09:50:29.288Z,99426.19
2023-02-18T09:53:03.507Z,99419.56
2023-02-18T09:55:41.495Z,99417.59
2023-02-18T09:58:24.705Z,99418.19
2023-02-18T10:01:38.058Z,99432.25
2023-02-18T10:04:46.299Z,99430.81
2023-02-18T10:07:33.277Z,99426.25
2023-02-18T10:10:42.115Z,99421.78
2023-02-18T10:13:21.495Z,99406.50
2023-02-18T10:15:54.960Z,99400.63
2023-02-18T10:18:34.640Z,99415.25
2023-02-18T10:21:15.083Z,99406.63
2023-02-18T10:27:35.883Z,99408.75
2023-02-18T10:30:44.376Z,99410.72
2023-02-18T10:33:36.480Z,99394.16
2023-02-18T10:36:26.466Z,99392.13
2023-02-18T10:39:25.810Z,99374.94
2023-02-18T10:42:31.333Z,99377.78
2023-02-18T10:45:51.415Z,99390.81
2023-02-18T10:49:07.021Z,99378.84
2023-02-18T10:51:46.806Z,99373.59
2023-02-18T10:54:25.367Z,99364.28
2023-02-18T10:57:02.643Z,99374.91
2023-02-18T10:59:35.204Z,99374.91
2023-02-18T11:02:18.452Z,99397.97
2023-02-18T11:04:50.437Z,99398.16
2023-02-18T11:07:27.926Z,99374.94
2023-02-18T11:10:33.380Z,99384.88
2023-02-18T11:13:08.870Z,99391.50
2023-02-18T11:16:03.752Z,99381.53
2023-02-18T11:18:47.384Z,99379.53
2023-02-18T11:21:39.363Z,99394.75
2023-02-18T11:24:34.046Z,99384.06
2023-02-18T11:27:13.022Z,99374.53
2023-02-18T11:29:52.928Z,99387.47
2023-02-18T11:32:28.412Z,99376.06
2023-02-18T11:35:04.907Z,99365.34
2023-02-18T11:40:35.497Z,99374.84
2023-02-18T11:43:16.772Z,99351.56
2023-02-18T11:46:14.390Z,99367.56
2023-02-18T11:48:47.527Z,99359.59
2023-02-18T11:51:29.429Z,99362.94
2023-02-18T11:54:03.663Z,99374.91
2023-02-18T11:56:39.890Z,99347.59
2023-02-18T11:59:12.683Z,99355.63
2023-02-18T12:01:53.588Z,99336.78
2023-02-18T12:04:42.452Z,99332.81
2023-02-18T12:07:48.886Z,99323.53
2023-02-18T12:10:42.886Z,99323.00
2023-02-18T12:13:34.770Z,99329.66
2023-02-18T12:16:26.684Z,99336.41
2023-02-18T12:19:19.444Z,99325.13
2023-02-18T12:22:25.363Z,99327.09
2023-02-18T12:25:49.431Z,99320.50
2023-02-18T12:28:24.337Z,99324.44
2023-02-18T12:31:15.059Z,99313.13
2023-02-18T12:34:15.105Z,99316.50
2023-02-18T12:37:09.684Z,99314.47
2023-02-18T12:40:18.803Z,99301.16
2023-02-18T12:43:22.838Z,99306.47
2023-02-18T12:46:10.484Z,99287.97
2023-02-18T12:49:20.187Z,99295.19
2023-02-18T12:52:34.613Z,99296.50
2023-02-18T12:55:31.280Z,99284.59
2023-02-18T12:58:25.965Z,99292.59
2023-02-18T13:01:36.805Z,99311.16
2023-02-18T13:04:36.808Z,99283.34
2023-02-18T13:07:21.073Z,99285.94
2023-02-18T13:10:12.394Z,99290.38
2023-02-18T13:12:55.142Z,99288.31
2023-02-18T13:15:51.133Z,99278.53
2023-02-18T13:21:56.056Z,99289.31
2023-02-18T13:24:37.088Z,99286.63
2023-02-18T13:27:46.565Z,99287.31
2023-02-18T13:30:36.802Z,99278.03
2023-02-18T13:33:22.909Z,99272.03
2023-02-18T13:35:55.513Z,99267.41
2023-02-18T13:38:55.801Z,99266.72
2023-02-18T13:41:28.652Z,99256.78
2023-02-18T13:44:01.739Z,99263.44
2023-02-18T13:46:53.810Z,99247.44
2023-02-18T13:49:33.636Z,99255.25
2023-02-18T13:52:06.097Z,99237.25
2023-02-18T13:54:46.074Z,99239.97
2023-02-18T13:57:23.474Z,99240.03
2023-02-18T14:00:04.462Z,99242.75
2023-02-18T14:02:37.576Z,99246.78
2023-02-18T14:05:09.551Z,99248.00
2023-02-18T14:07:51.465Z,99239.22
2023-02-18T14:10:35.098Z,99222.00
2023-02-18T14:13:25.303Z,99231.34
2023-02-18T14:16:01.582Z,99224.72
2023-02-18T14:18:39.395Z,99229.25
2023-02-18T14:21:11.988Z,99222.06
2023-02-18T14:23:47.917Z,99232.00
2023-02-18T14:26:34.320Z,99236.78
2023-02-18T14:29:19.233Z,99228.84
2023-02-18T14:31:57.686Z,99223.50
2023-02-18T14:35:05.597Z,99222.19
2023-02-18T14:37:56.745Z,99207.56
2023-02-18T14:40:37.772Z,99208.84
2023-02-18T14:43:27.769Z,99210.22
2023-02-18T14:46:40.399Z,99205.66
2023-02-18T14:52:51.307Z,99203.56
2023-02-18T14:55:29.132Z,99194.34
2023-02-18T14:58:11.249Z,99204.25
2023-02-18T15:00:44.461Z,99207.63
2023-02-18T15:03:22.886Z,99201.69
2023-02-18T15:05:55.714Z,99194.97
2023-02-18T15:08:28.367Z,99209.63
2023-02-18T15:11:06.177Z,99199.09
2023-02-18T15:14:00.557Z,99202.38
2023-02-18T15:16:34.150Z,99189.78
2023-02-18T15:19:14.229Z,99195.75
2023-02-18T15:21:51.980Z,99209.69
2023-02-18T15:24:34.090Z,99197.13
2023-02-18T15:27:19.419Z,99191.13
2023-02-18T15:30:07.192Z,99193.09
2023-02-18T15:32:39.766Z,99181.84
2023-02-18T15:35:19.509Z,99191.16
2023-02-18T15:37:55.734Z,99194.47
2023-02-18T15:40:33.022Z,99186.53
2023-02-18T15:43:06.646Z,99205.06
2023-02-18T15:45:42.864Z,99198.47
2023-02-18T15:48:48.819Z,99187.81
2023-02-18T15:51:28.652Z,99186.53
2023-02-18T15:54:03.863Z,99181.88
2023-02-18T15:57:03.084Z,99188.53
2023-02-18T15:59:36.490Z,99179.22
2023-02-18T16:02:09.199Z,99176.59
2023-02-18T16:04:47.803Z,99173.28
2023-02-18T16:07:32.990Z,99169.94
2023-02-18T16:10:24.529Z,99181.25
2023-02-18T16:13:00.919Z,99170.63
2023-02-18T16:15:40.394Z,99162.00
2023-02-18T16:18:39.561Z,99152.72
2023-02-18T16:21:17.432Z,99162.00
2023-02-18T16:23:58.908Z,99158.69
2023-02-18T16:26:44.471Z,99142.78
2023-02-18T16:29:28.539Z,99158.00
2023-02-18T16:32:00.608Z,99138.16
2023-02-18T16:34:33.720Z,99143.41
2023-02-18T16:37:24.644Z,99148.72
2023-02-18T16:39:58.170Z,99138.81
2023-02-18T16:42:30.075Z,99134.16
2023-02-18T16:45:03.236Z,99150.69
2023-02-18T16:47:57.235Z,99152.03
2023-02-18T16:50:32.309Z,99142.06
2023-02-18T16:53:04.223Z,99142.69
2023-02-18T16:55:36.473Z,99148.69
2023-02-18T16:58:09.622Z,99157.28
2023-02-18T17:00:42.423Z,99157.25
2023-02-18T17:03:15.749Z,99169.16
2023-02-18T17:05:47.753Z,99165.88
2023-02-18T17:08:27.876Z,99158.56
2023-02-18T17:11:00.898Z,99165.16
2023-02-18T17:13:34.017Z,99171.81
2023-02-18T17:16:09.989Z,99166.53
2023-02-18T17:18:44.044Z,99156.50
2023-02-18T17:21:23.952Z,99178.41
2023-02-18T17:23:56.990Z,99163.81
2023-02-18T17:26:30.550Z,99185.00
2023-02-18T17:29:04.106Z,99188.31
2023-02-18T17:31:47.552Z,99179.69
2023-02-18T17:34:28.966Z,99187.63
2023-02-18T17:37:01.722Z,99182.97
2023-02-18T17:39:34.323Z,99178.97
2023-02-18T17:42:06.696Z,99188.25
2023-02-18T17:44:40.094Z,99182.94
2023-02-18T17:47:12.802Z,99187.56
2023-02-18T17:49:45.086Z,99187.53
2023-02-18T17:52:30.798Z,99190.19
2023-02-18T17:55:18.577Z,99204.81
2023-02-18T17:57:52.370Z,99187.50
2023-02-18T18:00:33.996Z,99196.16
2023-02-18T18:03:06.234Z,99198.81
2023-02-18T18:05:43.500Z,99206.09
2023-02-18T18:08:15.706Z,99200.09
2023-02-18T18:13:49.779Z,99204.78
2023-02-18T18:16:24.872Z,99200.09
2023-02-18T18:18:56.806Z,99186.84
2023-02-18T18:21:35.652Z,99188.84
2023-02-18T18:24:09.729Z,99208.75
2023-02-18T18:26:41.991Z,99214.72
2023-02-18T18:29:14.717Z,99203.47
2023-02-18T18:31:47.085Z,99201.47
2023-02-18T18:34:21.473Z,99207.41
2023-02-18T18:36:55.623Z,99204.03
2023-02-18T18:39:27.503Z,99204.66
2023-02-18T18:42:02.369Z,99188.78
2023-02-18T18:44:34.650Z,99198.69
2023-02-18T18:47:06.534Z,99196.69
2023-02-18T18:49:39.643Z,99196.00
2023-02-18T18:52:16.276Z,99196.09
2023-02-18T18:54:48.982Z,99198.00
2023-02-18T18:57:21.307Z,99209.34
2023-02-18T18:59:54.028Z,99207.38
2023-02-18T19:02:25.946Z,99201.41
2023-02-18T19:04:59.041Z,99204.66
2023-02-18T19:07:30.968Z,99187.38
2023-02-18T19:10:04.004Z,99196.03
2023-02-18T19:12:36.324Z,99194.66
2023-02-18T19:15:14.036Z,99182.72
2023-02-18T19:17:53.470Z,99195.34
2023-02-18T19:20:32.281Z,99202.06
2023-02-18T19:23:05.388Z,99204.03
2023-02-18T19:25:39.166Z,99204.00
2023-02-18T19:28:13.878Z,99208.59
2023-02-18T19:30:47.791Z,99207.97
2023-02-18T19:33:20.123Z,99208.56
2023-02-18T19:38:46.570Z,99190.69
2023-02-18T19:41:19.653Z,99193.38
2023-02-18T19:43:52.576Z,99187.34
2023-02-18T19:46:25.783Z,99186.13
2023-02-18T19:48:59.416Z,99201.41
2023-02-18T19:51:31.795Z,99195.38
2023-02-18T19:54:03.809Z,99207.38
2023-02-18T19:56:36.636Z,99182.84
2023-02-18T19:59:09.342Z,99196.09
2023-02-18T20:01:41.691Z,99198.16
2023-02-18T20:04:13.613Z,99208.75
2023-02-18T20:06:46.401Z,99214.81
2023-02-18T20:09:18.267Z,99185.56
2023-02-18T20:11:51.366Z,99204.16
2023-02-18T20:14:27.609Z,99196.88
2023-02-18T20:16:59.612Z,99202.16
2023-02-18T20:22:27.207Z,99214.78
2023-02-18T20:25:00.606Z,99198.22
2023-02-18T20:27:33.960Z,99204.16
2023-02-18T20:30:09.749Z,99199.53
2023-02-18T20:32:42.319Z,99190.94
2023-02-18T20:35:17.551Z,99187.00
2023-02-18T20:37:49.849Z,99208.81
2023-02-18T20:40:22.753Z,99191.56
2023-02-18T20:42:55.459Z,99214.78
2023-02-18T20:45:27.824Z,99198.16
2023-02-18T20:47:59.679Z,99195.53
2023-02-18T20:50:35.848Z,99206.16
2023-02-18T20:53:08.509Z,99207.47
2023-02-18T20:55:48.067Z,99197.53
2023-02-18T20:58:20.644Z,99175.69
2023-02-18T21:00:57.420Z,99196.22
2023-02-18T21:03:30.268Z,99186.28
2023-02-18T21:06:12.024Z,99188.91
2023-02-18T21:08:47.317Z,99180.97
2023-02-18T21:11:23.488Z,99197.56
2023-02-18T21:13:57.474Z,99200.84
2023-02-18T21:16:32.684Z,99194.22
2023-02-18T21:19:11.613Z,99172.97
2023-02-18T21:21:45.362Z,99182.91
2023-02-18T21:24:17.695Z,99180.25
2023-02-18T21:26:49.977Z,99174.94
2023-02-18T21:29:21.902Z,99169.66
2023-02-18T21:31:54.703Z,99186.19
2023-02-18T21:34:29.510Z,99169.66
2023-02-18T21:37:01.797Z,99172.94
2023-02-18T21:39:33.692Z,99170.28
2023-02-18T21:42:07.654Z,99174.19
2023-02-18T21:44:58.814Z,99172.94
2023-02-18T21:47:31.513Z,99167.59
2023-02-18T21:50:05.768Z,99173.56
2023-02-18T21:52:38.686Z,99162.91
2023-02-18T21:55:12.208Z,99174.91
2023-02-18T21:57:44.488Z,99180.22
2023-02-18T22:00:20.770Z,99184.81
2023-02-18T22:03:15.671Z,99190.09
2023-02-18T22:05:48.762Z,99179.53
2023-02-18T22:08:21.640Z,99178.19
2023-02-18T22:10:53.934Z,99182.19
2023-02-18T22:13:28.404Z,99178.88
2023-02-18T22:16:03.416Z,99178.19
2023-02-18T22:18:35.754Z,99170.94
2023-02-18T22:21:10.133Z,99182.19
2023-02-18T22:23:42.294Z,99171.56
2023-02-18T22:26:36.447Z,99173.59
2023-02-18T22:29:08.742Z,99164.34
2023-02-18T22:31:42.439Z,99178.84
2023-02-18T22:34:14.790Z,99158.94
2023-02-18T22:36:47.874Z,99157.63
2023-02-18T22:39:20.267Z,99162.22
2023-02-18T22:41:52.836Z,99177.50
2023-02-18T22:44:27.310Z,99171.53
2023-02-18T22:47:00.003Z,99175.50
2023-02-18T22:49:31.886Z,99164.16
2023-02-18T22:52:04.722Z,99155.59
2023-02-18T22:54:36.581Z,99166.16
2023-02-18T22:57:09.337Z,99158.22
2023-02-18T22:59:41.802Z,99184.72
2023-02-18T23:02:14.090Z,99161.50
2023-02-18T23:04:45.958Z,99156.19
2023-02-18T23:10:32.132Z,99160.78
2023-02-18T23:13:04.806Z,99162.81
2023-02-18T23:15:36.688Z,99148.88
2023-02-18T23:18:09.944Z,99157.44
2023-02-18T23:21:00.267Z,99139.59
2023-02-18T23:23:32.447Z,99143.50
2023-02-18T23:26:06.190Z,99130.19
2023-02-18T23:28:50.051Z,99144.78
2023-02-18T23:31:28.168Z,99152.66
2023-02-18T23:34:01.555Z,99138.75
2023-02-18T23:36:36.747Z,99149.34
2023-02-18T23:39:10.449Z,99148.03
2023-02-18T23:41:43.194Z,99139.38
2023-02-18T23:44:19.763Z,99146.63
2023-02-18T23:46:52.186Z,99134.72
2023-02-18T23:49:29.720Z,99132.63
2023-02-18T23:52:01.573Z,99124.03
2023-02-18T23:54:34.769Z,99136.63
2023-02-18T23:57:07.089Z,99142.50
2023-02-18T23:59:39.805Z,99149.75
